Latest Coastal Weather Observations for Bougainville Reef

IDQ60701

Issued at 6:42 pm EST Thursday 26 May 2016 (issued every 10 minutes, with the page automatically refreshed every 10 minutes)

About coastal observations | Map of coastal stations | Coastal observations for QLD | Marine services | Other Formats
Station Details ID: 200840 Name: BOUGAINVILLE REEF Lat: -15.49 Lon: 147.12 Height: 0.0 m
Data from the previous 72 hours. | See also: Recent months for locations in Queensland
Date/Time
EST
Temp

°C
Wind Pressure Rain
since 9am
mm
Weather Cloud Vis
km
Sea
Height
m
Swell
Dir
 
Speed
knots
Gust
knots
hPa Trend Height
m
Period
s
Dir
26/06:30pm 26.8 SSE 9 11 1013.2 - - - - - - - - -
26/06:00pm 26.9 SSE 8 9 1012.8 - - - - - - - - -
26/05:30pm 27.1 SE 8 10 1012.9 - - - - - - - - -
26/05:00pm 27.1 SE 8 9 1012.7 - - - - - - - - -
26/04:30pm 27.2 SE 8 10 1012.7 - - - - - - - - -
26/04:00pm 27.1 SE 9 11 1012.4 - - - - - - - - -
26/03:30pm 27.1 ESE 9 10 1012.6 - - - - - - - - -
26/03:00pm 27.1 ESE 10 11 1012.6 - - - - - - - - -
26/02:30pm 27.1 ESE 9 11 1012.9 - - - - - - - - -
26/02:00pm 27.1 ESE 10 11 1013.0 - - - - - - - - -
26/01:30pm 27.1 ESE 11 12 1013.3 - - - - - - - - -
26/01:00pm 27.2 ESE 11 12 1013.8 - - - - - - - - -
26/12:30pm 27.1 ESE 11 12 1014.1 - - - - - - - - -
26/12:00pm 26.6 ESE 14 13 1014.6 - - - - - - - - -
26/11:30am 26.8 SE 12 15 1015.0 - - - - - - - - -
26/11:00am 27.1 ESE 12 16 1015.2 - - - - - - - - -
26/10:30am 27.1 SE 11 13 1015.5 - - - - - - - - -
26/10:00am 26.8 ESE 13 14 1015.4 - - - - - - - - -
26/09:30am 26.6 ESE 13 15 1015.5 - - - - - - - - -
26/09:00am 27.0 SE 12 13 1015.3 - - - - - - - - -
26/08:30am 26.9 SE 11 14 1015.1 - - - - - - - - -
26/08:00am 26.7 SE 12 13 1014.5 - - - - - - - - -
26/07:30am 26.7 ESE 13 15 1014.3 - - - - - - - - -
26/07:00am 26.0 E 10 14 1013.9 - - - - - - - - -
26/06:30am 25.8 E 14 17 1013.7 - - - - - - - - -
26/06:00am 26.7 SE 12 15 1013.2 - - - - - - - - -
26/05:30am 26.8 SE 12 13 1013.1 - - - - - - - - -
26/05:00am 26.6 SE 13 15 1012.8 - - - - - - - - -
26/04:30am 26.7 SE 12 14 1012.9 - - - - - - - - -
26/04:00am 26.2 SSE 12 12 1012.7 - - - - - - - - -
26/03:30am 26.2 SSE 11 13 1012.8 - - - - - - - - -
26/03:00am 26.1 SSE 12 12 1013.1 - - - - - - - - -
26/02:30am 26.4 SSE 14 16 1013.3 - - - - - - - - -
26/02:00am 26.5 SE 14 16 1013.7 - - - - - - - - -
26/01:30am 26.3 SE 14 16 1013.9 - - - - - - - - -
26/01:00am 25.8 SSE 15 15 1014.0 - - - - - - - - -
26/12:30am 25.4 SSE 15 17 1014.2 - - - - - - - - -
26/12:00am 25.5 SE 16 20 1014.3 - - - - - - - - -
 
Date/Time
EST
Temp

°C
Wind Pressure Rain
since 9am
mm
Weather Cloud Vis
km
Sea
Height
m
Swell
Dir
 
Speed
knots
Gust
knots
hPa Trend Height
m
Period
s
Dir
25/11:30pm 26.2 SSE 14 17 1014.5 - - - - - - - - -
25/11:00pm 26.4 SE 14 15 1014.5 - - - - - - - - -
25/10:30pm 26.4 SE 15 16 1014.7 - - - - - - - - -
25/10:00pm 26.7 SE 15 17 1014.7 - - - - - - - - -
25/09:30pm 26.7 SE 16 18 1014.7 - - - - - - - - -
25/09:00pm 26.9 ESE 14 16 1014.5 - - - - - - - - -
25/08:30pm 26.6 ESE 14 16 1014.5 - - - - - - - - -
25/08:00pm 26.0 SSE 15 18 1014.0 - - - - - - - - -
25/07:30pm 25.3 SSE 16 19 1014.0 - - - - - - - - -
25/07:00pm 26.6 SE 16 18 1013.4 - - - - - - - - -
25/06:30pm 26.2 SE 16 19 1013.2 - - - - - - - - -
25/06:00pm 26.7 SSE 17 20 1012.7 - - - - - - - - -
25/05:30pm 26.7 SSE 16 18 1012.7 - - - - - - - - -
25/05:00pm 26.9 SE 14 17 1012.4 - - - - - - - - -
25/04:30pm 26.9 SE 14 16 1012.3 - - - - - - - - -
25/04:00pm 26.8 SE 14 16 1012.0 - - - - - - - - -
25/03:30pm 26.9 SE 13 15 1011.9 - - - - - - - - -
25/03:00pm 27.0 SE 13 15 1012.2 - - - - - - - - -
25/02:30pm 27.0 SE 13 15 1012.4 - - - - - - - - -
25/02:00pm 26.7 ESE 16 16 1012.3 - - - - - - - - -
25/01:30pm 26.7 ESE 16 19 1012.7 - - - - - - - - -
25/01:00pm 26.9 ESE 16 18 1013.1 - - - - - - - - -
25/12:30pm 27.0 ESE 15 17 1013.5 - - - - - - - - -
25/12:00pm 26.9 ESE 15 17 1014.0 - - - - - - - - -
25/11:30am 26.1 ESE 15 18 1014.3 - - - - - - - - -
25/11:00am 26.9 SE 15 17 1014.4 - - - - - - - - -
25/10:30am 26.8 ESE 17 19 1014.5 - - - - - - - - -
25/10:00am 26.9 ESE 15 18 1014.9 - - - - - - - - -
25/09:30am 26.9 ESE 16 18 1014.7 - - - - - - - - -
25/09:00am 26.8 SE 16 19 1014.6 - - - - - - - - -
25/08:30am 26.9 SE 15 17 1014.7 - - - - - - - - -
25/08:00am 27.0 SE 15 16 1014.5 - - - - - - - - -
25/07:30am 26.8 SE 14 17 1014.2 - - - - - - - - -
25/07:00am 26.9 SE 15 18 1014.0 - - - - - - - - -
25/06:30am 26.8 SE 15 17 1013.8 - - - - - - - - -
25/06:00am 26.9 SE 16 19 1013.2 - - - - - - - - -
25/05:30am 26.7 SE 17 20 1012.9 - - - - - - - - -
25/05:00am 26.7 SE 17 21 1012.6 - - - - - - - - -
25/04:30am 26.3 ESE 14 18 1012.7 - - - - - - - - -
25/04:00am 26.7 SE 18 22 1012.6 - - - - - - - - -
25/03:30am 26.7 ESE 17 20 1012.7 - - - - - - - - -
25/03:00am 26.5 SE 18 20 1012.9 - - - - - - - - -
25/02:30am 26.5 SE 18 21 1013.3 - - - - - - - - -
25/02:00am 26.6 SE 19 21 1013.7 - - - - - - - - -
25/01:30am 26.2 SE 17 19 1014.1 - - - - - - - - -
25/01:00am 26.1 ESE 17 20 1014.2 - - - - - - - - -
25/12:30am 26.1 ESE 18 21 1014.6 - - - - - - - - -
25/12:00am 25.9 ESE 20 23 1014.7 - - - - - - - - -
 
Date/Time
EST
Temp

°C
Wind Pressure Rain
since 9am
mm
Weather Cloud Vis
km
Sea
Height
m
Swell
Dir
 
Speed
knots
Gust
knots
hPa Trend Height
m
Period
s
Dir
24/11:30pm 26.0 ESE 21 23 1014.7 - - - - - - - - -
24/11:00pm 25.7 ESE 23 25 1014.7 - - - - - - - - -
24/10:30pm 26.4 ESE 21 23 1014.7 - - - - - - - - -
24/10:00pm 26.6 SE 20 25 1014.7 - - - - - - - - -
24/09:30pm 26.8 SE 20 22 1014.7 - - - - - - - - -
24/09:26pm 26.8 SE 20 22 1014.9 - - - - - - - - -
24/09:00pm 26.0 E 18 20 1014.8 - - - - - - - - -
24/08:30pm 26.2 ESE 21 25 1014.7 - - - - - - - - -
24/08:00pm 26.5 SE 21 23 1014.2 - - - - - - - - -
24/07:30pm 26.7 SE 21 24 1014.0 - - - - - - - - -
24/07:00pm 26.7 SE 21 24 1013.4 - - - - - - - - -
24/06:30pm 26.5 SE 22 25 1013.5 - - - - - - - - -
24/06:00pm 26.7 SE 20 23 1012.9 - - - - - - - - -
24/05:30pm 26.7 SE 19 22 1012.9 - - - - - - - - -
24/05:00pm 26.9 SE 18 20 1012.9 - - - - - - - - -
24/04:30pm 26.7 SE 19 22 1012.7 - - - - - - - - -
24/04:00pm 26.7 SE 19 23 1012.5 - - - - - - - - -
24/03:30pm 26.7 SE 19 21 1012.5 - - - - - - - - -
24/03:00pm 26.6 SE 18 21 1012.6 - - - - - - - - -
24/02:30pm 26.7 SE 17 20 1012.9 - - - - - - - - -
24/02:00pm 26.6 ESE 18 23 1012.8 - - - - - - - - -
24/01:30pm 26.8 SE 20 22 1012.9 - - - - - - - - -
24/01:00pm 26.8 SE 20 21 1013.4 - - - - - - - - -
24/12:30pm 26.8 SE 20 22 1013.8 - - - - - - - - -
24/12:00pm 26.7 SE 19 21 1014.5 - - - - - - - - -
24/11:30am 26.5 SE 20 23 1014.6 - - - - - - - - -
24/11:00am 26.7 SE 22 24 1015.0 - - - - - - - - -
24/10:30am 26.8 SE 22 24 1015.0 - - - - - - - - -
24/10:00am 26.6 SE 23 26 1015.0 - - - - - - - - -
24/09:30am 26.7 ESE 23 25 1015.0 - - - - - - - - -
24/09:00am 26.2 SE 20 25 1014.8 - - - - - - - - -
24/08:30am 25.7 SE 23 27 1014.8 - - - - - - - - -
24/08:00am 25.8 SE 21 24 1014.3 - - - - - - - - -
24/07:30am 25.6 SE 24 28 1014.1 - - - - - - - - -
24/07:00am 25.7 SE 21 23 1013.7 - - - - - - - - -
24/06:30am 25.9 SE 23 26 1013.5 - - - - - - - - -
24/06:00am 25.6 SE 24 25 1013.0 - - - - - - - - -
24/05:30am 26.0 ESE 23 26 1012.8 - - - - - - - - -
24/05:00am 26.5 ESE 23 26 1012.1 - - - - - - - - -
24/04:30am 26.2 ESE 22 25 1012.5 - - - - - - - - -
24/04:00am 26.2 ESE 22 25 1012.6 - - - - - - - - -
24/03:30am 26.2 ESE 21 24 1012.6 - - - - - - - - -
24/03:00am 26.2 ESE 22 25 1012.6 - - - - - - - - -
24/02:30am 26.4 ESE 23 27 1012.9 - - - - - - - - -
24/02:00am 26.2 E 19 22 1013.2 - - - - - - - - -
24/01:30am 26.0 ESE 20 24 1013.6 - - - - - - - - -
24/01:00am 26.3 ESE 20 22 1014.0 - - - - - - - - -
24/12:30am 26.4 E 21 25 1014.1 - - - - - - - - -
24/12:00am 26.3 E 25 30 1013.4 - - - - - - - - -
 
Date/Time
EST
Temp

°C
Wind Pressure Rain
since 9am
mm
Weather Cloud Vis
km
Sea
Height
m
Swell
Dir
 
Speed
knots
Gust
knots
hPa Trend Height
m
Period
s
Dir
23/11:30pm 26.1 E 25 29 1013.5 - - - - - - - - -
23/11:00pm 25.8 E 23 29 1014.0 - - - - - - - - -
23/10:30pm 26.0 E 24 27 1014.5 - - - - - - - - -
23/10:00pm 26.2 E 22 25 1014.9 - - - - - - - - -
23/09:30pm 26.1 E 21 24 1015.1 - - - - - - - - -
23/09:00pm 25.9 E 19 25 1014.9 - - - - - - - - -
23/08:30pm 25.4 ESE 20 26 1015.2 - - - - - - - - -
23/08:00pm 26.1 ESE 18 21 1015.0 - - - - - - - - -
23/07:30pm 25.9 ESE 19 23 1014.9 - - - - - - - - -
23/07:00pm 25.8 ESE 22 25 1013.5 - - - - - - - - -

Other Formats:

Comma delimited format used in spreadsheet applications
http://www.bom.gov.au/fwo/IDQ60701/IDQ60701.95288.axf

JavaScript Object Notation format (JSON) in row-major order
http://www.bom.gov.au/fwo/IDQ60701/IDQ60701.95288.json